sensor_id;sensor_type;location;lat;lon;timestamp;P1;durP1;ratioP1;P2;durP2;ratioP2
51838;SDS011;37886;53.174;6.368;2023-06-14T00:01:51;12.30;;;11.13;;
51838;SDS011;37886;53.174;6.368;2023-06-14T00:04:17;23.88;;;21.50;;
51838;SDS011;37886;53.174;6.368;2023-06-14T00:06:45;37.13;;;34.78;;
51838;SDS011;37886;53.174;6.368;2023-06-14T00:09:12;47.40;;;43.95;;
51838;SDS011;37886;53.174;6.368;2023-06-14T00:11:42;43.50;;;40.55;;
51838;SDS011;37886;53.174;6.368;2023-06-14T00:14:08;26.25;;;23.95;;
51838;SDS011;37886;53.174;6.368;2023-06-14T00:16:35;21.58;;;19.67;;
51838;SDS011;37886;53.174;6.368;2023-06-14T00:19:02;56.90;;;52.67;;
51838;SDS011;37886;53.174;6.368;2023-06-14T00:21:29;82.38;;;77.03;;
51838;SDS011;37886;53.174;6.368;2023-06-14T00:23:55;140.43;;;131.45;;
51838;SDS011;37886;53.174;6.368;2023-06-14T00:26:22;109.95;;;102.82;;
51838;SDS011;37886;53.174;6.368;2023-06-14T00:28:48;110.25;;;103.25;;
51838;SDS011;37886;53.174;6.368;2023-06-14T00:31:14;156.55;;;146.95;;
51838;SDS011;37886;53.174;6.368;2023-06-14T00:33:40;151.45;;;141.70;;
51838;SDS011;37886;53.174;6.368;2023-06-14T00:36:06;140.95;;;131.70;;
51838;SDS011;37886;53.174;6.368;2023-06-14T00:38:31;135.65;;;126.85;;
51838;SDS011;37886;53.174;6.368;2023-06-14T00:40:57;124.18;;;116.35;;
51838;SDS011;37886;53.174;6.368;2023-06-14T00:43:23;110.40;;;103.35;;
51838;SDS011;37886;53.174;6.368;2023-06-14T00:45:49;82.40;;;77.38;;
51838;SDS011;37886;53.174;6.368;2023-06-14T00:48:16;72.50;;;67.68;;
51838;SDS011;37886;53.174;6.368;2023-06-14T00:50:43;65.38;;;61.10;;
51838;SDS011;37886;53.174;6.368;2023-06-14T00:53:11;126.88;;;118.85;;
51838;SDS011;37886;53.174;6.368;2023-06-14T00:55:37;92.53;;;86.47;;
51838;SDS011;37886;53.174;6.368;2023-06-14T00:58:03;139.55;;;131.02;;
51838;SDS011;37886;53.174;6.368;2023-06-14T01:00:29;168.55;;;158.05;;
51838;SDS011;37886;53.174;6.368;2023-06-14T01:02:55;143.90;;;134.77;;
51838;SDS011;37886;53.174;6.368;2023-06-14T01:05:22;101.05;;;94.80;;
51838;SDS011;37886;53.174;6.368;2023-06-14T01:10:35;46.53;;;43.50;;
51838;SDS011;37886;53.174;6.368;2023-06-14T01:15:45;32.38;;;30.13;;
51838;SDS011;37886;53.174;6.368;2023-06-14T01:18:12;34.80;;;32.58;;
51838;SDS011;37886;53.174;6.368;2023-06-14T01:20:44;32.60;;;30.23;;
51838;SDS011;37886;53.174;6.368;2023-06-14T01:23:12;67.90;;;62.97;;
51838;SDS011;37886;53.174;6.368;2023-06-14T01:25:37;73.80;;;69.03;;
51838;SDS011;37886;53.174;6.368;2023-06-14T01:28:09;41.42;;;38.83;;
51838;SDS011;37886;53.174;6.368;2023-06-14T01:30:38;27.30;;;25.35;;
51838;SDS011;37886;53.174;6.368;2023-06-14T01:33:21;37.72;;;35.10;;
51838;SDS011;37886;53.174;6.368;2023-06-14T01:35:48;48.35;;;44.97;;
51838;SDS011;37886;53.174;6.368;2023-06-14T01:38:17;65.47;;;61.08;;
51838;SDS011;37886;53.174;6.368;2023-06-14T01:40:46;64.63;;;60.63;;
51838;SDS011;37886;53.174;6.368;2023-06-14T01:43:14;64.05;;;60.00;;
51838;SDS011;37886;53.174;6.368;2023-06-14T01:45:41;48.85;;;45.65;;
51838;SDS011;37886;53.174;6.368;2023-06-14T01:48:09;62.13;;;58.10;;
51838;SDS011;37886;53.174;6.368;2023-06-14T01:50:35;66.55;;;62.15;;
51838;SDS011;37886;53.174;6.368;2023-06-14T01:53:01;32.70;;;30.35;;
51838;SDS011;37886;53.174;6.368;2023-06-14T01:55:26;45.20;;;41.83;;
51838;SDS011;37886;53.174;6.368;2023-06-14T01:57:53;25.02;;;23.10;;
51838;SDS011;37886;53.174;6.368;2023-06-14T02:00:19;33.45;;;31.25;;
51838;SDS011;37886;53.174;6.368;2023-06-14T02:02:46;41.42;;;38.65;;
51838;SDS011;37886;53.174;6.368;2023-06-14T02:05:12;49.75;;;46.30;;
51838;SDS011;37886;53.174;6.368;2023-06-14T02:07:38;36.50;;;33.85;;
51838;SDS011;37886;53.174;6.368;2023-06-14T02:10:05;21.75;;;20.00;;
51838;SDS011;37886;53.174;6.368;2023-06-14T02:12:31;18.50;;;15.45;;
51838;SDS011;37886;53.174;6.368;2023-06-14T02:14:57;23.45;;;21.90;;
51838;SDS011;37886;53.174;6.368;2023-06-14T02:17:23;14.95;;;13.80;;
51838;SDS011;37886;53.174;6.368;2023-06-14T02:19:50;25.55;;;23.63;;
51838;SDS011;37886;53.174;6.368;2023-06-14T02:22:16;29.45;;;27.30;;
51838;SDS011;37886;53.174;6.368;2023-06-14T02:24:42;35.90;;;33.50;;
51838;SDS011;37886;53.174;6.368;2023-06-14T02:27:08;37.20;;;34.42;;
51838;SDS011;37886;53.174;6.368;2023-06-14T02:29:37;33.70;;;31.35;;
51838;SDS011;37886;53.174;6.368;2023-06-14T02:32:06;25.17;;;23.42;;
51838;SDS011;37886;53.174;6.368;2023-06-14T02:34:35;30.60;;;28.67;;
51838;SDS011;37886;53.174;6.368;2023-06-14T02:37:01;15.90;;;14.57;;
51838;SDS011;37886;53.174;6.368;2023-06-14T02:39:30;18.35;;;15.70;;
51838;SDS011;37886;53.174;6.368;2023-06-14T02:41:56;29.15;;;26.98;;
51838;SDS011;37886;53.174;6.368;2023-06-14T02:44:25;41.63;;;38.65;;
51838;SDS011;37886;53.174;6.368;2023-06-14T02:46:54;65.93;;;61.33;;
51838;SDS011;37886;53.174;6.368;2023-06-14T02:49:21;40.03;;;37.03;;
51838;SDS011;37886;53.174;6.368;2023-06-14T02:51:47;89.47;;;83.90;;
51838;SDS011;37886;53.174;6.368;2023-06-14T02:54:13;126.60;;;118.70;;
51838;SDS011;37886;53.174;6.368;2023-06-14T02:56:39;111.32;;;103.85;;
51838;SDS011;37886;53.174;6.368;2023-06-14T02:59:05;102.38;;;95.97;;
51838;SDS011;37886;53.174;6.368;2023-06-14T03:01:32;119.07;;;111.45;;
51838;SDS011;37886;53.174;6.368;2023-06-14T03:04:06;146.23;;;137.02;;
51838;SDS011;37886;53.174;6.368;2023-06-14T03:06:32;154.23;;;144.63;;
51838;SDS011;37886;53.174;6.368;2023-06-14T03:08:58;152.80;;;143.35;;
51838;SDS011;37886;53.174;6.368;2023-06-14T03:11:26;154.95;;;145.50;;
51838;SDS011;37886;53.174;6.368;2023-06-14T03:13:52;117.35;;;109.82;;
51838;SDS011;37886;53.174;6.368;2023-06-14T03:16:19;114.82;;;107.60;;
51838;SDS011;37886;53.174;6.368;2023-06-14T03:18:47;92.53;;;86.75;;
51838;SDS011;37886;53.174;6.368;2023-06-14T03:21:16;90.03;;;84.03;;
51838;SDS011;37886;53.174;6.368;2023-06-14T03:23:49;87.32;;;81.55;;
51838;SDS011;37886;53.174;6.368;2023-06-14T03:26:15;74.43;;;69.63;;
51838;SDS011;37886;53.174;6.368;2023-06-14T03:28:46;39.50;;;36.92;;
51838;SDS011;37886;53.174;6.368;2023-06-14T03:31:12;54.05;;;50.58;;
51838;SDS011;37886;53.174;6.368;2023-06-14T03:33:39;83.30;;;77.55;;
51838;SDS011;37886;53.174;6.368;2023-06-14T03:36:05;102.55;;;96.03;;
51838;SDS011;37886;53.174;6.368;2023-06-14T03:38:31;98.88;;;91.25;;
51838;SDS011;37886;53.174;6.368;2023-06-14T03:40:57;84.38;;;79.00;;
51838;SDS011;37886;53.174;6.368;2023-06-14T03:43:23;102.28;;;95.82;;
51838;SDS011;37886;53.174;6.368;2023-06-14T03:45:49;52.78;;;49.25;;
51838;SDS011;37886;53.174;6.368;2023-06-14T03:48:14;48.55;;;45.35;;
51838;SDS011;37886;53.174;6.368;2023-06-14T03:50:40;72.72;;;67.88;;
51838;SDS011;37886;53.174;6.368;2023-06-14T03:53:07;91.05;;;84.80;;
51838;SDS011;37886;53.174;6.368;2023-06-14T03:55:33;59.58;;;55.58;;
51838;SDS011;37886;53.174;6.368;2023-06-14T03:58:00;128.10;;;119.68;;
51838;SDS011;37886;53.174;6.368;2023-06-14T04:00:25;65.20;;;60.70;;
51838;SDS011;37886;53.174;6.368;2023-06-14T04:02:51;102.82;;;95.95;;
51838;SDS011;37886;53.174;6.368;2023-06-14T04:05:18;94.10;;;87.95;;
51838;SDS011;37886;53.174;6.368;2023-06-14T04:07:44;78.53;;;73.38;;
51838;SDS011;37886;53.174;6.368;2023-06-14T04:10:13;120.95;;;113.15;;
51838;SDS011;37886;53.174;6.368;2023-06-14T04:12:40;59.43;;;55.10;;
51838;SDS011;37886;53.174;6.368;2023-06-14T04:15:07;58.53;;;54.75;;
51838;SDS011;37886;53.174;6.368;2023-06-14T04:17:34;133.57;;;125.07;;
51838;SDS011;37886;53.174;6.368;2023-06-14T04:20:00;86.25;;;80.47;;
51838;SDS011;37886;53.174;6.368;2023-06-14T04:22:27;129.10;;;121.13;;
51838;SDS011;37886;53.174;6.368;2023-06-14T04:24:56;58.03;;;54.05;;
51838;SDS011;37886;53.174;6.368;2023-06-14T04:27:23;115.93;;;107.95;;
51838;SDS011;37886;53.174;6.368;2023-06-14T04:29:54;106.63;;;99.82;;
51838;SDS011;37886;53.174;6.368;2023-06-14T04:32:25;125.70;;;117.32;;
51838;SDS011;37886;53.174;6.368;2023-06-14T04:34:54;121.03;;;113.40;;
51838;SDS011;37886;53.174;6.368;2023-06-14T04:37:24;117.38;;;109.80;;
51838;SDS011;37886;53.174;6.368;2023-06-14T04:39:53;110.47;;;103.35;;
51838;SDS011;37886;53.174;6.368;2023-06-14T04:42:20;102.03;;;95.30;;
51838;SDS011;37886;53.174;6.368;2023-06-14T04:44:50;108.78;;;101.70;;
51838;SDS011;37886;53.174;6.368;2023-06-14T04:49:46;113.80;;;106.50;;
51838;SDS011;37886;53.174;6.368;2023-06-14T04:52:12;137.88;;;128.68;;
51838;SDS011;37886;53.174;6.368;2023-06-14T04:54:38;136.43;;;127.80;;
51838;SDS011;37886;53.174;6.368;2023-06-14T04:57:08;139.93;;;130.98;;
51838;SDS011;37886;53.174;6.368;2023-06-14T04:59:39;128.38;;;120.18;;
51838;SDS011;37886;53.174;6.368;2023-06-14T05:02:05;124.85;;;116.70;;
51838;SDS011;37886;53.174;6.368;2023-06-14T05:04:32;97.80;;;91.68;;
51838;SDS011;37886;53.174;6.368;2023-06-14T05:06:59;84.93;;;79.32;;
51838;SDS011;37886;53.174;6.368;2023-06-14T05:09:26;158.98;;;148.82;;
51838;SDS011;37886;53.174;6.368;2023-06-14T05:11:51;105.75;;;98.85;;
51838;SDS011;37886;53.174;6.368;2023-06-14T05:14:17;149.20;;;139.65;;
51838;SDS011;37886;53.174;6.368;2023-06-14T05:16:43;119.00;;;111.13;;
51838;SDS011;37886;53.174;6.368;2023-06-14T05:19:09;95.93;;;89.57;;
51838;SDS011;37886;53.174;6.368;2023-06-14T05:21:36;70.57;;;65.82;;
51838;SDS011;37886;53.174;6.368;2023-06-14T05:24:04;124.55;;;116.20;;
51838;SDS011;37886;53.174;6.368;2023-06-14T05:26:30;147.40;;;137.68;;
51838;SDS011;37886;53.174;6.368;2023-06-14T05:28:56;121.53;;;113.43;;
51838;SDS011;37886;53.174;6.368;2023-06-14T05:31:25;165.55;;;155.32;;
51838;SDS011;37886;53.174;6.368;2023-06-14T05:33:51;116.13;;;108.68;;
51838;SDS011;37886;53.174;6.368;2023-06-14T05:36:17;146.05;;;136.40;;
51838;SDS011;37886;53.174;6.368;2023-06-14T05:38:43;115.32;;;107.80;;
51838;SDS011;37886;53.174;6.368;2023-06-14T05:41:10;167.95;;;157.43;;
51838;SDS011;37886;53.174;6.368;2023-06-14T05:43:36;128.00;;;119.65;;
51838;SDS011;37886;53.174;6.368;2023-06-14T05:46:01;43.05;;;39.75;;
51838;SDS011;37886;53.174;6.368;2023-06-14T05:48:27;164.27;;;153.63;;
51838;SDS011;37886;53.174;6.368;2023-06-14T05:50:53;78.60;;;73.30;;
51838;SDS011;37886;53.174;6.368;2023-06-14T05:53:19;109.90;;;102.65;;
51838;SDS011;37886;53.174;6.368;2023-06-14T05:55:45;114.72;;;107.15;;
51838;SDS011;37886;53.174;6.368;2023-06-14T05:58:11;149.38;;;139.65;;
51838;SDS011;37886;53.174;6.368;2023-06-14T06:00:38;66.75;;;61.92;;
51838;SDS011;37886;53.174;6.368;2023-06-14T06:03:04;71.18;;;66.38;;
51838;SDS011;37886;53.174;6.368;2023-06-14T06:05:33;120.18;;;112.53;;
51838;SDS011;37886;53.174;6.368;2023-06-14T06:07:58;120.30;;;112.20;;
51838;SDS011;37886;53.174;6.368;2023-06-14T06:10:25;105.78;;;98.82;;
51838;SDS011;37886;53.174;6.368;2023-06-14T06:12:51;53.45;;;49.58;;
51838;SDS011;37886;53.174;6.368;2023-06-14T06:15:17;144.23;;;134.90;;
51838;SDS011;37886;53.174;6.368;2023-06-14T06:17:43;95.93;;;89.35;;
51838;SDS011;37886;53.174;6.368;2023-06-14T06:20:09;79.63;;;74.47;;
51838;SDS011;37886;53.174;6.368;2023-06-14T06:22:37;73.32;;;68.18;;
51838;SDS011;37886;53.174;6.368;2023-06-14T06:25:03;142.90;;;133.68;;
51838;SDS011;37886;53.174;6.368;2023-06-14T06:27:29;87.32;;;81.45;;
51838;SDS011;37886;53.174;6.368;2023-06-14T06:29:54;103.82;;;97.20;;
51838;SDS011;37886;53.174;6.368;2023-06-14T06:32:31;47.55;;;44.30;;
51838;SDS011;37886;53.174;6.368;2023-06-14T06:34:57;131.25;;;122.55;;
51838;SDS011;37886;53.174;6.368;2023-06-14T06:37:24;148.10;;;138.77;;
51838;SDS011;37886;53.174;6.368;2023-06-14T06:39:50;123.68;;;115.70;;
51838;SDS011;37886;53.174;6.368;2023-06-14T06:42:16;107.43;;;100.50;;
51838;SDS011;37886;53.174;6.368;2023-06-14T06:44:42;35.90;;;33.22;;
51838;SDS011;37886;53.174;6.368;2023-06-14T06:47:07;41.45;;;38.20;;
51838;SDS011;37886;53.174;6.368;2023-06-14T06:49:34;39.35;;;36.38;;
51838;SDS011;37886;53.174;6.368;2023-06-14T06:52:01;77.43;;;72.32;;
51838;SDS011;37886;53.174;6.368;2023-06-14T06:54:29;33.90;;;31.33;;
51838;SDS011;37886;53.174;6.368;2023-06-14T06:56:55;45.78;;;42.47;;
51838;SDS011;37886;53.174;6.368;2023-06-14T06:59:21;49.03;;;45.45;;
51838;SDS011;37886;53.174;6.368;2023-06-14T07:01:46;43.42;;;40.00;;
51838;SDS011;37886;53.174;6.368;2023-06-14T07:04:12;34.47;;;31.77;;
51838;SDS011;37886;53.174;6.368;2023-06-14T07:06:38;32.47;;;30.10;;
51838;SDS011;37886;53.174;6.368;2023-06-14T07:09:04;60.22;;;55.95;;
51838;SDS011;37886;53.174;6.368;2023-06-14T07:11:33;77.15;;;72.25;;
51838;SDS011;37886;53.174;6.368;2023-06-14T07:13:59;35.60;;;33.00;;
51838;SDS011;37886;53.174;6.368;2023-06-14T07:16:25;41.50;;;38.25;;
51838;SDS011;37886;53.174;6.368;2023-06-14T07:18:50;90.15;;;84.28;;
51838;SDS011;37886;53.174;6.368;2023-06-14T07:21:17;70.82;;;66.03;;
51838;SDS011;37886;53.174;6.368;2023-06-14T07:23:43;60.35;;;56.40;;
51838;SDS011;37886;53.174;6.368;2023-06-14T07:26:09;45.25;;;42.30;;
51838;SDS011;37886;53.174;6.368;2023-06-14T07:28:35;42.90;;;39.53;;
51838;SDS011;37886;53.174;6.368;2023-06-14T07:31:01;32.00;;;29.50;;
51838;SDS011;37886;53.174;6.368;2023-06-14T07:33:27;19.77;;;18.10;;
51838;SDS011;37886;53.174;6.368;2023-06-14T07:35:53;32.22;;;29.42;;
51838;SDS011;37886;53.174;6.368;2023-06-14T07:38:19;39.10;;;36.42;;
51838;SDS011;37886;53.174;6.368;2023-06-14T07:40:45;27.17;;;24.83;;
51838;SDS011;37886;53.174;6.368;2023-06-14T07:43:11;19.13;;;17.63;;
51838;SDS011;37886;53.174;6.368;2023-06-14T07:45:37;27.08;;;25.15;;
51838;SDS011;37886;53.174;6.368;2023-06-14T07:48:03;24.48;;;22.85;;
51838;SDS011;37886;53.174;6.368;2023-06-14T07:50:29;24.17;;;22.50;;
51838;SDS011;37886;53.174;6.368;2023-06-14T07:52:56;30.63;;;28.60;;
51838;SDS011;37886;53.174;6.368;2023-06-14T07:55:22;28.88;;;27.08;;
51838;SDS011;37886;53.174;6.368;2023-06-14T07:57:47;27.35;;;25.30;;
51838;SDS011;37886;53.174;6.368;2023-06-14T08:00:13;38.45;;;35.20;;
51838;SDS011;37886;53.174;6.368;2023-06-14T08:02:43;24.58;;;22.77;;
51838;SDS011;37886;53.174;6.368;2023-06-14T08:05:10;26.30;;;24.27;;
51838;SDS011;37886;53.174;6.368;2023-06-14T08:07:37;35.88;;;33.40;;
51838;SDS011;37886;53.174;6.368;2023-06-14T08:10:06;75.50;;;70.65;;
51838;SDS011;37886;53.174;6.368;2023-06-14T08:12:33;37.50;;;34.45;;
51838;SDS011;37886;53.174;6.368;2023-06-14T08:15:00;31.92;;;29.63;;
51838;SDS011;37886;53.174;6.368;2023-06-14T08:17:25;64.55;;;60.40;;
51838;SDS011;37886;53.174;6.368;2023-06-14T08:19:51;26.48;;;24.67;;
51838;SDS011;37886;53.174;6.368;2023-06-14T08:22:20;22.77;;;20.90;;
51838;SDS011;37886;53.174;6.368;2023-06-14T08:24:48;30.92;;;28.75;;
51838;SDS011;37886;53.174;6.368;2023-06-14T08:27:13;29.35;;;26.85;;
51838;SDS011;37886;53.174;6.368;2023-06-14T08:29:39;40.53;;;37.83;;
51838;SDS011;37886;53.174;6.368;2023-06-14T08:32:06;17.05;;;15.75;;
51838;SDS011;37886;53.174;6.368;2023-06-14T08:34:32;66.88;;;62.42;;
51838;SDS011;37886;53.174;6.368;2023-06-14T08:36:58;47.53;;;44.25;;
51838;SDS011;37886;53.174;6.368;2023-06-14T08:39:29;36.35;;;33.88;;
51838;SDS011;37886;53.174;6.368;2023-06-14T08:41:55;43.88;;;40.75;;
51838;SDS011;37886;53.174;6.368;2023-06-14T08:44:22;44.00;;;41.15;;
51838;SDS011;37886;53.174;6.368;2023-06-14T08:46:48;52.58;;;49.33;;
51838;SDS011;37886;53.174;6.368;2023-06-14T08:49:16;54.63;;;51.15;;
51838;SDS011;37886;53.174;6.368;2023-06-14T08:51:43;51.92;;;48.22;;
51838;SDS011;37886;53.174;6.368;2023-06-14T08:54:10;50.97;;;47.83;;
51838;SDS011;37886;53.174;6.368;2023-06-14T08:56:38;32.50;;;30.00;;
51838;SDS011;37886;53.174;6.368;2023-06-14T08:59:06;52.33;;;49.08;;
51838;SDS011;37886;53.174;6.368;2023-06-14T09:01:34;29.45;;;27.52;;
51838;SDS011;37886;53.174;6.368;2023-06-14T09:04:02;22.73;;;21.02;;
51838;SDS011;37886;53.174;6.368;2023-06-14T09:06:30;32.67;;;30.48;;
51838;SDS011;37886;53.174;6.368;2023-06-14T09:08:56;33.55;;;31.42;;
51838;SDS011;37886;53.174;6.368;2023-06-14T09:11:23;39.85;;;36.60;;
51838;SDS011;37886;53.174;6.368;2023-06-14T09:13:49;37.13;;;34.35;;
51838;SDS011;37886;53.174;6.368;2023-06-14T09:16:16;32.50;;;30.20;;
51838;SDS011;37886;53.174;6.368;2023-06-14T09:18:45;50.80;;;47.47;;
51838;SDS011;37886;53.174;6.368;2023-06-14T09:21:16;54.13;;;50.78;;
51838;SDS011;37886;53.174;6.368;2023-06-14T09:23:43;59.17;;;55.30;;
51838;SDS011;37886;53.174;6.368;2023-06-14T09:26:14;35.15;;;32.95;;
51838;SDS011;37886;53.174;6.368;2023-06-14T09:31:11;61.38;;;57.33;;
51838;SDS011;37886;53.174;6.368;2023-06-14T09:33:38;58.45;;;54.88;;
51838;SDS011;37886;53.174;6.368;2023-06-14T09:36:04;56.42;;;52.47;;
51838;SDS011;37886;53.174;6.368;2023-06-14T09:38:36;62.15;;;57.72;;
51838;SDS011;37886;53.174;6.368;2023-06-14T09:41:01;39.47;;;36.92;;
51838;SDS011;37886;53.174;6.368;2023-06-14T09:43:29;37.92;;;34.70;;
51838;SDS011;37886;53.174;6.368;2023-06-14T09:45:54;41.53;;;38.88;;
51838;SDS011;37886;53.174;6.368;2023-06-14T09:48:21;53.85;;;50.28;;
51838;SDS011;37886;53.174;6.368;2023-06-14T09:50:46;52.85;;;49.20;;
51838;SDS011;37886;53.174;6.368;2023-06-14T09:53:15;61.25;;;57.47;;
51838;SDS011;37886;53.174;6.368;2023-06-14T09:55:42;58.15;;;54.25;;
51838;SDS011;37886;53.174;6.368;2023-06-14T09:58:10;58.22;;;54.75;;
51838;SDS011;37886;53.174;6.368;2023-06-14T10:00:39;52.13;;;48.42;;
51838;SDS011;37886;53.174;6.368;2023-06-14T10:03:11;65.53;;;61.20;;
51838;SDS011;37886;53.174;6.368;2023-06-14T10:05:45;58.65;;;54.97;;
51838;SDS011;37886;53.174;6.368;2023-06-14T10:08:14;51.60;;;48.33;;
51838;SDS011;37886;53.174;6.368;2023-06-14T10:10:43;54.70;;;51.28;;
51838;SDS011;37886;53.174;6.368;2023-06-14T10:13:09;62.30;;;58.40;;
51838;SDS011;37886;53.174;6.368;2023-06-14T10:18:29;32.17;;;29.45;;
51838;SDS011;37886;53.174;6.368;2023-06-14T10:23:40;44.08;;;41.28;;
51838;SDS011;37886;53.174;6.368;2023-06-14T10:26:08;50.33;;;47.28;;
51838;SDS011;37886;53.174;6.368;2023-06-14T10:28:42;40.67;;;37.97;;
51838;SDS011;37886;53.174;6.368;2023-06-14T10:31:36;32.42;;;30.02;;
51838;SDS011;37886;53.174;6.368;2023-06-14T10:34:12;25.23;;;22.98;;
51838;SDS011;37886;53.174;6.368;2023-06-14T10:36:50;48.33;;;45.30;;
51838;SDS011;37886;53.174;6.368;2023-06-14T10:39:28;41.17;;;38.60;;
51838;SDS011;37886;53.174;6.368;2023-06-14T10:41:54;29.92;;;27.92;;
51838;SDS011;37886;53.174;6.368;2023-06-14T10:46:54;38.25;;;35.75;;
51838;SDS011;37886;53.174;6.368;2023-06-14T10:49:43;36.25;;;33.88;;
51838;SDS011;37886;53.174;6.368;2023-06-14T10:52:11;31.02;;;28.95;;
51838;SDS011;37886;53.174;6.368;2023-06-14T10:57:30;33.63;;;31.05;;
51838;SDS011;37886;53.174;6.368;2023-06-14T11:00:02;28.48;;;26.58;;
51838;SDS011;37886;53.174;6.368;2023-06-14T11:11:05;32.75;;;30.48;;
51838;SDS011;37886;53.174;6.368;2023-06-14T11:13:32;43.83;;;40.65;;
51838;SDS011;37886;53.174;6.368;2023-06-14T11:15:59;34.72;;;32.53;;
51838;SDS011;37886;53.174;6.368;2023-06-14T11:18:25;36.45;;;34.00;;
51838;SDS011;37886;53.174;6.368;2023-06-14T11:20:52;34.08;;;31.58;;
51838;SDS011;37886;53.174;6.368;2023-06-14T11:23:18;37.00;;;34.28;;
51838;SDS011;37886;53.174;6.368;2023-06-14T11:25:51;40.67;;;38.10;;
51838;SDS011;37886;53.174;6.368;2023-06-14T11:28:17;37.75;;;35.28;;
51838;SDS011;37886;53.174;6.368;2023-06-14T11:30:45;35.72;;;33.13;;
51838;SDS011;37886;53.174;6.368;2023-06-14T11:33:14;42.38;;;39.38;;
51838;SDS011;37886;53.174;6.368;2023-06-14T11:35:43;40.00;;;37.40;;
51838;SDS011;37886;53.174;6.368;2023-06-14T11:38:10;51.25;;;48.10;;
51838;SDS011;37886;53.174;6.368;2023-06-14T11:40:37;45.92;;;42.53;;
51838;SDS011;37886;53.174;6.368;2023-06-14T11:43:03;68.80;;;64.05;;
51838;SDS011;37886;53.174;6.368;2023-06-14T11:45:30;37.80;;;35.45;;
51838;SDS011;37886;53.174;6.368;2023-06-14T11:47:56;41.53;;;38.88;;
51838;SDS011;37886;53.174;6.368;2023-06-14T11:50:26;39.60;;;36.88;;
51838;SDS011;37886;53.174;6.368;2023-06-14T11:52:53;56.90;;;53.50;;
51838;SDS011;37886;53.174;6.368;2023-06-14T11:55:21;46.90;;;43.90;;
51838;SDS011;37886;53.174;6.368;2023-06-14T11:57:47;57.05;;;52.97;;
51838;SDS011;37886;53.174;6.368;2023-06-14T12:00:13;59.85;;;56.05;;
51838;SDS011;37886;53.174;6.368;2023-06-14T12:02:41;48.42;;;45.20;;
51838;SDS011;37886;53.174;6.368;2023-06-14T12:05:07;48.58;;;45.22;;
51838;SDS011;37886;53.174;6.368;2023-06-14T12:07:38;63.13;;;59.22;;
51838;SDS011;37886;53.174;6.368;2023-06-14T12:10:07;57.08;;;53.50;;
51838;SDS011;37886;53.174;6.368;2023-06-14T12:12:39;45.40;;;42.60;;
51838;SDS011;37886;53.174;6.368;2023-06-14T12:15:06;55.72;;;52.22;;
51838;SDS011;37886;53.174;6.368;2023-06-14T12:17:33;64.70;;;60.47;;
51838;SDS011;37886;53.174;6.368;2023-06-14T12:20:06;57.58;;;54.03;;
51838;SDS011;37886;53.174;6.368;2023-06-14T12:22:39;56.45;;;52.88;;
51838;SDS011;37886;53.174;6.368;2023-06-14T12:25:22;59.80;;;55.78;;
51838;SDS011;37886;53.174;6.368;2023-06-14T12:27:52;64.95;;;60.78;;
51838;SDS011;37886;53.174;6.368;2023-06-14T12:30:22;81.90;;;76.50;;
51838;SDS011;37886;53.174;6.368;2023-06-14T12:32:48;76.13;;;71.53;;
51838;SDS011;37886;53.174;6.368;2023-06-14T12:35:14;74.00;;;69.38;;
51838;SDS011;37886;53.174;6.368;2023-06-14T12:37:40;51.08;;;47.90;;
51838;SDS011;37886;53.174;6.368;2023-06-14T12:40:06;76.20;;;71.32;;
51838;SDS011;37886;53.174;6.368;2023-06-14T12:42:32;64.03;;;59.72;;
51838;SDS011;37886;53.174;6.368;2023-06-14T12:45:01;50.10;;;46.55;;
51838;SDS011;37886;53.174;6.368;2023-06-14T12:47:27;49.63;;;46.42;;
51838;SDS011;37886;53.174;6.368;2023-06-14T12:49:53;46.20;;;43.25;;
51838;SDS011;37886;53.174;6.368;2023-06-14T12:52:19;33.03;;;31.02;;
51838;SDS011;37886;53.174;6.368;2023-06-14T12:54:45;27.75;;;25.95;;
51838;SDS011;37886;53.174;6.368;2023-06-14T12:57:10;39.20;;;36.53;;
51838;SDS011;37886;53.174;6.368;2023-06-14T12:59:36;47.67;;;44.72;;
51838;SDS011;37886;53.174;6.368;2023-06-14T13:04:38;47.53;;;44.00;;
51838;SDS011;37886;53.174;6.368;2023-06-14T13:07:04;42.97;;;40.38;;
51838;SDS011;37886;53.174;6.368;2023-06-14T13:09:30;43.17;;;40.58;;
51838;SDS011;37886;53.174;6.368;2023-06-14T13:11:56;42.83;;;39.90;;
51838;SDS011;37886;53.174;6.368;2023-06-14T13:14:22;38.83;;;36.38;;
51838;SDS011;37886;53.174;6.368;2023-06-14T13:16:48;35.35;;;33.05;;
51838;SDS011;37886;53.174;6.368;2023-06-14T13:19:13;26.10;;;24.30;;
51838;SDS011;37886;53.174;6.368;2023-06-14T13:21:39;28.40;;;26.60;;
51838;SDS011;37886;53.174;6.368;2023-06-14T13:24:05;30.30;;;28.50;;
51838;SDS011;37886;53.174;6.368;2023-06-14T13:26:32;27.20;;;25.42;;
51838;SDS011;37886;53.174;6.368;2023-06-14T13:28:59;29.13;;;27.20;;
51838;SDS011;37886;53.174;6.368;2023-06-14T13:31:25;33.05;;;30.85;;
51838;SDS011;37886;53.174;6.368;2023-06-14T13:33:51;30.73;;;28.83;;
51838;SDS011;37886;53.174;6.368;2023-06-14T13:36:16;30.20;;;27.73;;
51838;SDS011;37886;53.174;6.368;2023-06-14T13:38:42;27.92;;;26.27;;
51838;SDS011;37886;53.174;6.368;2023-06-14T13:41:08;26.67;;;24.75;;
51838;SDS011;37886;53.174;6.368;2023-06-14T13:43:34;29.00;;;27.25;;
51838;SDS011;37886;53.174;6.368;2023-06-14T13:46:00;26.10;;;24.05;;
51838;SDS011;37886;53.174;6.368;2023-06-14T13:48:25;29.67;;;27.80;;
51838;SDS011;37886;53.174;6.368;2023-06-14T13:50:51;53.22;;;49.92;;
51838;SDS011;37886;53.174;6.368;2023-06-14T13:53:17;45.70;;;42.92;;
51838;SDS011;37886;53.174;6.368;2023-06-14T13:55:43;47.65;;;44.67;;
51838;SDS011;37886;53.174;6.368;2023-06-14T13:58:09;30.42;;;28.23;;
51838;SDS011;37886;53.174;6.368;2023-06-14T14:00:35;45.15;;;42.17;;
51838;SDS011;37886;53.174;6.368;2023-06-14T14:03:05;48.22;;;45.30;;
51838;SDS011;37886;53.174;6.368;2023-06-14T14:05:31;57.45;;;53.78;;
51838;SDS011;37886;53.174;6.368;2023-06-14T14:07:57;53.13;;;49.60;;
51838;SDS011;37886;53.174;6.368;2023-06-14T14:10:26;53.53;;;50.20;;
51838;SDS011;37886;53.174;6.368;2023-06-14T14:12:52;49.72;;;46.58;;
51838;SDS011;37886;53.174;6.368;2023-06-14T14:15:19;36.42;;;33.78;;
51838;SDS011;37886;53.174;6.368;2023-06-14T14:17:45;50.83;;;47.70;;
51838;SDS011;37886;53.174;6.368;2023-06-14T14:20:12;16.95;;;15.45;;
51838;SDS011;37886;53.174;6.368;2023-06-14T14:22:43;20.88;;;19.48;;
51838;SDS011;37886;53.174;6.368;2023-06-14T14:25:09;40.65;;;37.83;;
51838;SDS011;37886;53.174;6.368;2023-06-14T14:27:36;41.35;;;38.65;;
51838;SDS011;37886;53.174;6.368;2023-06-14T14:30:02;52.42;;;49.03;;
51838;SDS011;37886;53.174;6.368;2023-06-14T14:32:29;46.15;;;43.25;;
51838;SDS011;37886;53.174;6.368;2023-06-14T14:34:54;20.85;;;19.58;;
51838;SDS011;37886;53.174;6.368;2023-06-14T14:37:20;20.98;;;19.48;;
51838;SDS011;37886;53.174;6.368;2023-06-14T14:39:46;24.48;;;22.73;;
51838;SDS011;37886;53.174;6.368;2023-06-14T14:42:12;50.50;;;47.22;;
51838;SDS011;37886;53.174;6.368;2023-06-14T14:44:38;49.22;;;46.13;;
51838;SDS011;37886;53.174;6.368;2023-06-14T14:47:05;60.28;;;56.35;;
51838;SDS011;37886;53.174;6.368;2023-06-14T14:49:31;51.67;;;48.58;;